Darstellungsparameter: Aktuell verwendete Einstellungen:
Skalierung der Graphiken ... ?
xyx+y,   Skalierungsfaktor:      Skalierung: Modus: x, Faktor: 1
Darstellungszeitraum ... ?
Vom - - bis: - -   Zeitraum: 24.05.2014 - 30.05.2014
Min/Max/Avg-Anzeige ... ?
Zeige MMA aktuell
Zeige MMA Monat
Zeige MMA alles
Zeige --A aktuell
Zeige --A Monat
Zeige --A alles
Keine MMA-Anzeige
MMA:
Keine MMA-Graphiken
MMA-Basis: 24.05.2014 - 30.05.2014
Quicknavigation für Darstellung... ?
Tage:      1T, 2T, 3T, 5T -1T -2T -3T -5T +1T +2T +3T +5T
Wochen: 1W, 2W, 3W -1W -2W -3W +1W +2W +3W
Monate: 1M, 3M, 6M -1M -3M -6M +1M +3M +6M
Jahre:    1J, 3J, 5J, 10J -1J -3J -5J -10J +1J +3J +5J +10J
Nutze für die Darstellung ... ?
Originaldaten oder ...
Mittelwerte Minima Maxima auf...
Stundenbasis Tagesbasis Wochenbasis
Monatsbasis Jahresbasis      Datenbasis: Mittelwerte auf Stundenbasis
Darstellen als:
Statistik (Auto) Statistik J:M      Darstellung:
Zur Graphik,    zurück zur Übersicht aller Sensoren.
 
Tabellarische Datenbersicht: ?
 
Sensor: Nr:Datum:Temp:Abs-Feuchte:Windchill:Wind:
Aussen-T/F 1 24-05-2014 00:00:00 12.85 C 10.61 g/m*3 12.85 C 0.13333 km/h
2 24-05-2014 01:00:00 12.31667 C 10.33 g/m*3 12.32 C 0.13333 km/h
3 24-05-2014 02:00:00 11.89167 C 10.14 g/m*3 11.89 C 1.875 km/h
4 24-05-2014 03:00:00 13.75 C 10.4 g/m*3 13.75 C 7.24167 km/h
5 24-05-2014 04:00:00 14.01667 C 9.91 g/m*3 14.02 C 9.275 km/h
6 24-05-2014 05:00:00 13.39167 C 9.8 g/m*3 13.39 C 2.41667 km/h
7 24-05-2014 06:00:00 12.2 C 10.17 g/m*3 12.2 C 1.475 km/h
8 24-05-2014 07:00:00 12.175 C 10.28 g/m*3 12.18 C 1.86667 km/h
9 24-05-2014 08:00:00 12.69167 C 10.58 g/m*3 12.69 C 1.2 km/h
10 24-05-2014 09:00:00 13.61667 C 11.27 g/m*3 13.62 C 0.66667 km/h
11 24-05-2014 10:00:00 14.61667 C 11.48 g/m*3 14.62 C 7.39167 km/h
12 24-05-2014 11:00:00 14.59167 C 10.71 g/m*3 14.59 C 12.49167 km/h
13 24-05-2014 12:00:00 15.18333 C 10.36 g/m*3 15.18 C 10.61667 km/h
14 24-05-2014 13:00:00 17.00833 C 10.62 g/m*3 17.01 C 10.35833 km/h
15 24-05-2014 14:00:00 17.85833 C 10.12 g/m*3 17.86 C 11.025 km/h
16 24-05-2014 15:00:00 19.05 C 9.74 g/m*3 19.05 C 13.15833 km/h
17 24-05-2014 16:00:00 18.66667 C 9.47 g/m*3 18.67 C 12.76667 km/h
18 24-05-2014 17:00:00 19.575 C 9 g/m*3 19.58 C 14.36667 km/h
19 24-05-2014 18:00:00 18.70833 C 8.74 g/m*3 18.71 C 7.38333 km/h
20 24-05-2014 19:00:00 16.25833 C 9.88 g/m*3 16.26 C 0.93333 km/h
21 24-05-2014 20:00:00 15.70833 C 10.34 g/m*3 15.71 C 2.13333 km/h
22 24-05-2014 21:00:00 13.43333 C 9.72 g/m*3 13.43 C 1.2 km/h
23 24-05-2014 22:00:00 11.9125 C 9.13 g/m*3 11.91 C 0 km/h
24 24-05-2014 23:00:00 11.10833 C 8.83 g/m*3 11.11 C 0 km/h
25 25-05-2014 00:00:00 10.23333 C 8.54 g/m*3 10.23 C 0.26667 km/h
Sensor: Nr:Datum:Temp:Abs-Feuchte:Windchill:Wind:
Aussen-T/F 26 25-05-2014 01:00:00 9.43333 C 8.31 g/m*3 9.43 C 0 km/h
27 25-05-2014 02:00:00 8.86667 C 8.12 g/m*3 8.87 C 0 km/h
28 25-05-2014 03:00:00 8.34167 C 7.95 g/m*3 8.34 C 0 km/h
29 25-05-2014 04:00:00 7.89167 C 7.8 g/m*3 7.89 C 0 km/h
30 25-05-2014 05:00:00 7.55 C 7.67 g/m*3 7.55 C 0 km/h
31 25-05-2014 06:00:00 7.49167 C 7.68 g/m*3 7.49 C 0.53333 km/h
32 25-05-2014 07:00:00 8.04167 C 7.99 g/m*3 8.04 C 2 km/h
33 25-05-2014 08:00:00 10.2 C 8.83 g/m*3 10.2 C 0 km/h
34 25-05-2014 09:00:00 11.85 C 9.57 g/m*3 11.85 C 0.13333 km/h
35 25-05-2014 10:00:00 15.38333 C 10.93 g/m*3 15.38 C 0.93333 km/h
36 25-05-2014 11:00:00 18.48333 C 10.74 g/m*3 18.48 C 3.20833 km/h
37 25-05-2014 12:00:00 21.11667 C 9.33 g/m*3 21.12 C 7.79167 km/h
38 25-05-2014 13:00:00 22.225 C 8.78 g/m*3 22.23 C 7.93333 km/h
39 25-05-2014 14:00:00 23.11667 C 9.48 g/m*3 23.12 C 7.93333 km/h
40 25-05-2014 15:00:00 23.48333 C 9.23 g/m*3 23.48 C 9.675 km/h
41 25-05-2014 16:00:00 23.70833 C 9.52 g/m*3 23.71 C 6.43333 km/h
42 25-05-2014 17:00:00 24.55 C 9.01 g/m*3 24.55 C 3.48333 km/h
43 25-05-2014 18:00:00 23.80833 C 9.52 g/m*3 23.81 C 4.80833 km/h
44 25-05-2014 19:00:00 19.99167 C 11.89 g/m*3 19.99 C 0.53333 km/h
45 25-05-2014 20:00:00 17.58333 C 11.45 g/m*3 17.58 C 0.93333 km/h
46 25-05-2014 21:00:00 16.525 C 10.84 g/m*3 16.52 C 0.8 km/h
47 25-05-2014 22:00:00 15.69167 C 10.55 g/m*3 15.69 C 0.13333 km/h
48 25-05-2014 23:00:00 15.1 C 10.31 g/m*3 15.1 C 0 km/h
49 26-05-2014 00:00:00 14.21667 C 10.07 g/m*3 14.22 C 0 km/h
50 26-05-2014 01:00:00 13.825 C 9.9 g/m*3 13.83 C 0 km/h
Sensor: Nr:Datum:Temp:Abs-Feuchte:Windchill:Wind:
Aussen-T/F 51 26-05-2014 02:00:00 13.29167 C 9.86 g/m*3 13.29 C 0 km/h
52 26-05-2014 03:00:00 12.96667 C 9.82 g/m*3 12.97 C 0 km/h
53 26-05-2014 04:00:00 12.78333 C 9.87 g/m*3 12.78 C 0 km/h
54 26-05-2014 05:00:00 13.04167 C 10.01 g/m*3 13.04 C 0 km/h
55 26-05-2014 06:00:00 13.225 C 10.23 g/m*3 13.23 C 0 km/h
56 26-05-2014 07:00:00 13.53333 C 10.56 g/m*3 13.53 C 0.66667 km/h
57 26-05-2014 08:00:00 14.68333 C 11.11 g/m*3 14.68 C 0.53333 km/h
58 26-05-2014 09:00:00 15.65 C 11.29 g/m*3 15.65 C 0.13333 km/h
59 26-05-2014 10:00:00 16.44167 C 11.3 g/m*3 16.44 C 3.6 km/h
60 26-05-2014 11:00:00 17.85833 C 11.38 g/m*3 17.86 C 7.25 km/h
61 26-05-2014 12:00:00 18.15833 C 11.76 g/m*3 18.16 C 7.775 km/h
62 26-05-2014 13:00:00 19.66667 C 12.23 g/m*3 19.67 C 8.875 km/h
63 26-05-2014 14:00:00 20.41667 C 12.19 g/m*3 20.42 C 9.825 km/h
64 26-05-2014 15:00:00 21.19167 C 12.12 g/m*3 21.19 C 6.16667 km/h
65 26-05-2014 16:00:00 21.86667 C 12.26 g/m*3 21.87 C 6.45 km/h
66 26-05-2014 17:00:00 21.60833 C 12.46 g/m*3 21.61 C 4.13333 km/h
67 26-05-2014 18:00:00 20.75833 C 13.04 g/m*3 20.76 C 2.26667 km/h
68 26-05-2014 19:00:00 19.8 C 13.14 g/m*3 19.8 C 0 km/h
69 26-05-2014 20:00:00 18.575 C 12.87 g/m*3 18.58 C 0.4 km/h
70 26-05-2014 21:00:00 17.38333 C 12.58 g/m*3 17.38 C 0.26667 km/h
71 26-05-2014 22:00:00 17.29167 C 12.76 g/m*3 17.29 C 0.53333 km/h
72 26-05-2014 23:00:00 16.46667 C 13 g/m*3 16.47 C 1.33333 km/h
73 27-05-2014 00:00:00 15.84 C 12.79 g/m*3 15.84 C 0 km/h
74 27-05-2014 01:00:00 15.31667 C 12.52 g/m*3 15.32 C 0 km/h
75 27-05-2014 02:00:00 14.81667 C 12.23 g/m*3 14.82 C 0 km/h
Sensor: Nr:Datum:Temp:Abs-Feuchte:Windchill:Wind:
Aussen-T/F 76 27-05-2014 03:00:00 14.74167 C 12.22 g/m*3 14.74 C 0 km/h
77 27-05-2014 04:00:00 14.68333 C 12.2 g/m*3 14.68 C 0 km/h
78 27-05-2014 05:00:00 14.43333 C 12.02 g/m*3 14.43 C 0 km/h
79 27-05-2014 06:00:00 14.46667 C 12.05 g/m*3 14.47 C 0 km/h
80 27-05-2014 07:00:00 14.875 C 12.47 g/m*3 14.88 C 1.6 km/h
81 27-05-2014 08:00:00 14.95833 C 12.43 g/m*3 14.96 C 2.28333 km/h
82 27-05-2014 09:00:00 14.75833 C 12.17 g/m*3 14.76 C 5.23333 km/h
83 27-05-2014 10:00:00 14.9 C 12.12 g/m*3 14.9 C 4.54167 km/h
84 27-05-2014 11:00:00 15.36667 C 12.34 g/m*3 15.37 C 2.80833 km/h
85 27-05-2014 12:00:00 15.575 C 12.25 g/m*3 15.58 C 6.69167 km/h
86 27-05-2014 13:00:00 17.35 C 12.84 g/m*3 17.35 C 7.08 km/h
87 27-05-2014 14:00:00 18.4 C 15.73 g/m*3 18.4 C 9.7 km/h
88 27-05-2014 15:00:00 16.36667 C 11.7 g/m*3 16.37 C 5.08333 km/h
89 27-05-2014 16:00:00 16.2 C 11.69 g/m*3 16.2 C 2.88 km/h
90 27-05-2014 17:00:00 15.31429 C 12.29 g/m*3 15.31 C 2.28571 km/h
91 27-05-2014 18:00:00 16.4 C 13.96 g/m*3 16.4 C 7.25 km/h
92 27-05-2014 19:00:00 15.38 C 12.7 g/m*3 15.38 C 0 km/h
93 27-05-2014 20:00:00 15.09167 C 12.2 g/m*3 15.09 C 1.86667 km/h
94 27-05-2014 21:00:00 14.52727 C 11.38 g/m*3 14.53 C 3.64545 km/h
95 28-05-2014 10:00:00 15.6 C 13.3 g/m*3 15.6 C 6.76 km/h
96 28-05-2014 11:00:00 15.6 C 13.3 g/m*3 15.6 C 8.05 km/h
97 28-05-2014 17:00:00 16.35 C 11.29 g/m*3 16.35 C 0.53333 km/h
98 28-05-2014 18:00:00 16.81667 C 11.59 g/m*3 16.82 C 0.26667 km/h
99 28-05-2014 19:00:00 16.15833 C 11.55 g/m*3 16.16 C 0.53333 km/h
100 28-05-2014 20:00:00 15.28333 C 11.36 g/m*3 15.28 C 0.66667 km/h
Sensor: Nr:Datum:Temp:Abs-Feuchte:Windchill:Wind:
Aussen-T/F 101 28-05-2014 21:00:00 13.46667 C 10.5 g/m*3 13.47 C 0.4 km/h
102 28-05-2014 22:00:00 12.54167 C 10.16 g/m*3 12.54 C 0 km/h
103 28-05-2014 23:00:00 11.74167 C 9.76 g/m*3 11.74 C 0 km/h
104 29-05-2014 00:00:00 11.16667 C 9.57 g/m*3 11.17 C 0 km/h
105 29-05-2014 01:00:00 10.63333 C 9.31 g/m*3 10.63 C 0.26667 km/h
106 29-05-2014 02:00:00 10.14167 C 9.1 g/m*3 10.14 C 0.13333 km/h
107 29-05-2014 03:00:00 9.84167 C 8.93 g/m*3 9.84 C 0 km/h
108 29-05-2014 04:00:00 9.73333 C 8.93 g/m*3 9.73 C 0.93333 km/h
109 29-05-2014 05:00:00 9.51667 C 8.79 g/m*3 9.52 C 1.74167 km/h
110 29-05-2014 06:00:00 9.525 C 8.84 g/m*3 9.53 C 4.00833 km/h
111 29-05-2014 07:00:00 9.725 C 8.96 g/m*3 9.05 C 6.425 km/h
112 29-05-2014 08:00:00 10.43333 C 9.35 g/m*3 10.43 C 4 km/h
113 29-05-2014 09:00:00 11.81667 C 9.97 g/m*3 11.82 C 3.2 km/h
114 29-05-2014 10:00:00 13.975 C 10.86 g/m*3 13.98 C 1.6 km/h
115 29-05-2014 11:00:00 15.875 C 11.31 g/m*3 15.88 C 2.26667 km/h
116 29-05-2014 12:00:00 17.50833 C 11.42 g/m*3 17.51 C 4.81667 km/h
117 29-05-2014 13:00:00 18.86667 C 11.32 g/m*3 18.87 C 9.15833 km/h
118 29-05-2014 14:00:00 18.81667 C 11.14 g/m*3 18.82 C 9.68333 km/h
119 29-05-2014 15:00:00 17.90833 C 10.94 g/m*3 17.91 C 9.825 km/h
120 29-05-2014 16:00:00 16.875 C 10.68 g/m*3 16.88 C 8.35 km/h
121 29-05-2014 17:00:00 16.40833 C 10.66 g/m*3 16.41 C 8.61667 km/h
122 29-05-2014 18:00:00 15.65 C 10.68 g/m*3 15.65 C 6.3 km/h
123 29-05-2014 19:00:00 14.85 C 10.82 g/m*3 14.85 C 3.46667 km/h
124 29-05-2014 20:00:00 14.375 C 10.8 g/m*3 14.38 C 2 km/h
125 29-05-2014 21:00:00 13.68333 C 10.9 g/m*3 13.68 C 0.13333 km/h
Sensor: Nr:Datum:Temp:Abs-Feuchte:Windchill:Wind:
Aussen-T/F 126 29-05-2014 22:00:00 13.05 C 9.96 g/m*3 13.05 C 6.71667 km/h
127 29-05-2014 23:00:00 12.34167 C 9.35 g/m*3 12.34 C 7.375 km/h
128 30-05-2014 00:00:00 11.85833 C 9.01 g/m*3 11.86 C 6.85 km/h
129 30-05-2014 01:00:00 11.325 C 8.63 g/m*3 11.33 C 8.325 km/h
130 30-05-2014 02:00:00 11.1 C 8.48 g/m*3 11.1 C 3.2 km/h
131 30-05-2014 03:00:00 10.9 C 8.3 g/m*3 10.9 C 3.33333 km/h
132 30-05-2014 04:00:00 10.68333 C 8.1 g/m*3 10.68 C 2.13333 km/h
133 30-05-2014 05:00:00 10.45 C 8.05 g/m*3 10.45 C 0.93333 km/h
134 30-05-2014 06:00:00 10.35833 C 7.87 g/m*3 10.36 C 3.46667 km/h
135 30-05-2014 07:00:00 10.69167 C 7.7 g/m*3 10.69 C 4.01667 km/h
136 30-05-2014 08:00:00 11.86667 C 7.64 g/m*3 11.87 C 6.84167 km/h
137 30-05-2014 09:00:00 12.55 C 7.34 g/m*3 12.55 C 9.01667 km/h
138 30-05-2014 10:00:00 14.34167 C 7.87 g/m*3 14.34 C 10.89167 km/h
139 30-05-2014 11:00:00 14.68333 C 7.92 g/m*3 14.68 C 9.425 km/h
140 30-05-2014 12:00:00 15.8 C 7.82 g/m*3 15.8 C 10.09167 km/h
141 30-05-2014 13:00:00 17.11667 C 8.28 g/m*3 17.12 C 12.1 km/h
142 30-05-2014 14:00:00 17.38333 C 7.97 g/m*3 17.38 C 10.89167 km/h
143 30-05-2014 15:00:00 16.83333 C 7.94 g/m*3 16.83 C 11.56667 km/h
144 30-05-2014 16:00:00 17.09167 C 8.15 g/m*3 17.09 C 8.73333 km/h
145 30-05-2014 17:00:00 16.16667 C 8.01 g/m*3 16.17 C 11.16667 km/h
146 30-05-2014 18:00:00 16.51667 C 7.96 g/m*3 16.52 C 9.825 km/h
147 30-05-2014 19:00:00 15.29167 C 7.76 g/m*3 15.29 C 9.28333 km/h
148 30-05-2014 20:00:00 14.26667 C 7.7 g/m*3 14.27 C 1.6 km/h
149 30-05-2014 21:00:00 11.56667 C 7.93 g/m*3 11.57 C 0.53333 km/h
150 30-05-2014 22:00:00 9.91667 C 7.61 g/m*3 9.92 C 0.13333 km/h
Sensor: Nr:Datum:Temp:Abs-Feuchte:Windchill:Wind:
Aussen-T/F 151 30-05-2014 23:00:00 8.8 C 7.44 g/m*3 8.8 C 0 km/h

Maximal/Minimal-Werte vom 24.05.2014 - 30.05.2014

Sensor Min Max Avg
Temp
(Aussen-T/F)
7.4 °C
25-05-2014  05:50:00
24.8 °C
25-05-2014  16:55:00
14.76 °C
Abs-Feuchte
(Aussen-T/F)
7.34 g/m*3
30-05-2014  09:00:00
15.73 g/m*3
27-05-2014  14:00:00
10.21 g/m*3
Windchill
(Aussen-T/F)
7.49 C
25-05-2014  06:00:00
24.55 C
25-05-2014  17:00:00
14.74 C

Die Daten stammen von einer Davis Vantage Pro 2 Wetter-Station und werden unter Linux mit der Software wview2wettercgi und aufbereitet. Alle Angaben erfolgen ohne Gewähr für ihre Vollständigkeit oder Richtigkeit.
Kontakt: Rainer Krienke krienke@uni-koblenz.de . Meine Webseiten an der Uni Koblenz oder privat.
Version: $Revision: 0.78 $